Time;durP1;ratioP1;P1;durP2;ratioP2;P2;SDS_P1;SDS_P2;PMS_P1;PMS_P2;Temp;Humidity;BMP_temperature;BMP_pressure;BME280_temperature;BME280_humidity;BME280_pressure;Samples;Min_cycle;Max_cycle;Signal;HPM_P1;HPM_P2
2022/07/08 00:01:09;;;;;;;2.65;1.80;;;;;;;;;;2085266;28;20033;-62
2022/07/08 00:02:28;;;;;;;2.15;1.95;;;;;;;;;;2084361;28;20107;-63
2022/07/08 00:03:47;;;;;;;5.70;2.00;;;;;;;;;;2086597;28;20501;-62
2022/07/08 00:05:06;;;;;;;4.03;1.75;;;;;;;;;;2087701;28;20037;-62
2022/07/08 00:06:25;;;;;;;1.75;1.50;;;;;;;;;;2089308;28;20021;-62
2022/07/08 00:07:44;;;;;;;2.60;1.80;;;;;;;;;;2085115;28;20028;-62
2022/07/08 00:09:03;;;;;;;2.63;1.90;;;;;;;;;;2086352;28;20017;-63
2022/07/08 00:10:22;;;;;;;1.90;1.80;;;;;;;;;;2087530;28;20385;-63
2022/07/08 00:11:41;;;;;;;2.17;1.98;;;;;;;;;;2085882;28;20398;-63
2022/07/08 00:13:00;;;;;;;2.88;2.20;;;;;;;;;;2085035;28;20474;-61
2022/07/08 00:14:20;;;;;;;2.05;1.80;;;;;;;;;;2086456;28;20021;-59
2022/07/08 00:15:39;;;;;;;3.13;2.20;;;;;;;;;;2085460;28;20037;-62
2022/07/08 00:16:58;;;;;;;4.28;2.00;;;;;;;;;;2088613;28;20493;-63
2022/07/08 00:18:17;;;;;;;1.83;1.70;;;;;;;;;;2087933;28;20033;-62
2022/07/08 00:19:36;;;;;;;3.08;1.95;;;;;;;;;;2087787;28;20112;-62
2022/07/08 00:20:55;;;;;;;3.33;1.70;;;;;;;;;;2086061;28;20045;-63
2022/07/08 00:22:14;;;;;;;4.88;2.40;;;;;;;;;;2087105;28;20496;-62
2022/07/08 00:23:32;;;;;;;3.40;1.83;;;;;;;;;;2086087;28;20506;-62
2022/07/08 00:24:51;;;;;;;1.65;1.30;;;;;;;;;;2086962;28;20037;-62
2022/07/08 00:26:10;;;;;;;3.28;1.98;;;;;;;;;;2088861;28;20021;-63
2022/07/08 00:27:29;;;;;;;2.03;1.85;;;;;;;;;;2086470;28;20497;-64
2022/07/08 00:28:48;;;;;;;1.85;1.67;;;;;;;;;;2088770;28;20033;-62
2022/07/08 00:30:08;;;;;;;1.58;1.48;;;;;;;;;;2085764;28;20433;-62
2022/07/08 00:31:28;;;;;;;1.90;1.50;;;;;;;;;;2086569;28;20029;-62
2022/07/08 00:32:47;;;;;;;2.92;1.70;;;;;;;;;;2087725;28;20025;-62
2022/07/08 00:34:06;;;;;;;1.48;1.40;;;;;;;;;;2084827;28;20037;-63
2022/07/08 00:35:25;;;;;;;1.90;1.60;;;;;;;;;;2086521;28;20040;-63
2022/07/08 00:36:44;;;;;;;1.70;1.60;;;;;;;;;;2088704;28;20025;-63
2022/07/08 00:38:03;;;;;;;4.80;1.90;;;;;;;;;;2087878;28;20032;-63
2022/07/08 00:39:22;;;;;;;2.33;1.75;;;;;;;;;;2087646;28;20048;-62
2022/07/08 00:40:40;;;;;;;1.73;1.63;;;;;;;;;;2088166;28;20029;-62
2022/07/08 00:41:59;;;;;;;2.80;1.67;;;;;;;;;;2087442;28;20066;-63
2022/07/08 00:43:24;;;;;;;3.47;1.58;;;;;;;;;;2086940;28;20064;-62
2022/07/08 00:44:43;;;;;;;3.05;1.40;;;;;;;;;;2088973;28;20424;-62
2022/07/08 00:46:03;;;;;;;2.50;1.45;;;;;;;;;;2086268;28;20466;-62
2022/07/08 00:47:22;;;;;;;3.15;1.50;;;;;;;;;;2087039;28;20033;-62
2022/07/08 00:48:41;;;;;;;3.75;1.80;;;;;;;;;;2087781;28;20026;-63
2022/07/08 00:50:00;;;;;;;2.25;1.60;;;;;;;;;;2086697;28;20048;-64
2022/07/08 00:51:19;;;;;;;1.77;1.67;;;;;;;;;;2086123;28;20037;-62
2022/07/08 00:52:38;;;;;;;2.38;1.70;;;;;;;;;;2086061;28;20117;-63
2022/07/08 00:53:57;;;;;;;1.50;1.40;;;;;;;;;;2085841;28;20525;-62
2022/07/08 00:55:16;;;;;;;2.28;1.58;;;;;;;;;;2086886;28;20065;-62
2022/07/08 00:56:36;;;;;;;4.05;1.98;;;;;;;;;;2087025;28;20025;-63
2022/07/08 00:57:54;;;;;;;2.10;1.90;;;;;;;;;;2085594;28;20111;-63
2022/07/08 00:59:13;;;;;;;3.08;1.40;;;;;;;;;;2087211;28;20493;-63
2022/07/08 01:00:32;;;;;;;3.70;2.00;;;;;;;;;;2085955;28;20546;-62
2022/07/08 01:01:51;;;;;;;3.10;1.80;;;;;;;;;;2086989;28;20025;-62
2022/07/08 01:03:10;;;;;;;2.38;1.70;;;;;;;;;;2085273;28;20033;-62
2022/07/08 01:04:30;;;;;;;2.35;1.70;;;;;;;;;;2087228;28;20053;-64
2022/07/08 01:05:49;;;;;;;1.80;1.67;;;;;;;;;;2084160;28;20036;-62
2022/07/08 01:07:08;;;;;;;1.48;1.38;;;;;;;;;;2086422;28;20037;-63
2022/07/08 01:08:27;;;;;;;3.88;1.50;;;;;;;;;;2086824;28;20033;-62
2022/07/08 01:09:46;;;;;;;1.67;1.58;;;;;;;;;;2085627;28;20108;-62
2022/07/08 01:11:06;;;;;;;2.00;1.80;;;;;;;;;;2085736;28;20143;-63
2022/07/08 01:12:26;;;;;;;4.00;1.48;;;;;;;;;;2088696;28;20033;-62
2022/07/08 01:13:44;;;;;;;2.67;1.45;;;;;;;;;;2082761;28;20057;-62
2022/07/08 01:15:03;;;;;;;5.18;1.20;;;;;;;;;;2085814;28;20036;-64
2022/07/08 01:16:22;;;;;;;1.50;1.40;;;;;;;;;;2086884;28;20041;-62
2022/07/08 01:17:42;;;;;;;1.50;1.40;;;;;;;;;;2078077;28;20026;-63
2022/07/08 01:19:01;;;;;;;2.65;1.60;;;;;;;;;;2084166;28;20037;-64
2022/07/08 01:20:19;;;;;;;2.78;1.92;;;;;;;;;;2086803;28;20386;-62
2022/07/08 01:21:38;;;;;;;2.45;1.70;;;;;;;;;;2084880;28;20048;-62
2022/07/08 01:22:57;;;;;;;2.58;1.63;;;;;;;;;;2086969;28;20033;-63
2022/07/08 01:24:17;;;;;;;1.80;1.65;;;;;;;;;;2087300;28;20037;-63
2022/07/08 01:25:36;;;;;;;1.63;1.50;;;;;;;;;;2085849;28;20037;-62
2022/07/08 01:26:56;;;;;;;1.50;1.40;;;;;;;;;;2086220;28;20017;-62
2022/07/08 01:28:15;;;;;;;3.30;2.08;;;;;;;;;;2087250;28;20025;-63
2022/07/08 01:29:35;;;;;;;4.55;1.65;;;;;;;;;;2085007;28;20093;-63
2022/07/08 01:30:53;;;;;;;2.20;1.65;;;;;;;;;;2086136;28;20029;-62
2022/07/08 01:32:12;;;;;;;2.08;1.98;;;;;;;;;;2087216;28;20033;-62
2022/07/08 01:33:32;;;;;;;1.88;1.60;;;;;;;;;;2084686;28;20021;-62
2022/07/08 01:34:51;;;;;;;1.77;1.60;;;;;;;;;;2087232;28;20025;-62
2022/07/08 01:36:10;;;;;;;2.55;1.77;;;;;;;;;;2086421;28;20490;-62
2022/07/08 01:37:28;;;;;;;1.98;1.80;;;;;;;;;;2085070;28;20021;-62
2022/07/08 01:38:47;;;;;;;2.47;1.50;;;;;;;;;;2086628;28;20490;-63
2022/07/08 01:40:06;;;;;;;3.13;1.73;;;;;;;;;;2088403;28;20032;-62
2022/07/08 01:41:25;;;;;;;2.40;1.60;;;;;;;;;;2085858;28;20052;-62
2022/07/08 01:42:44;;;;;;;2.33;1.77;;;;;;;;;;2088735;28;20028;-62
2022/07/08 01:44:03;;;;;;;2.65;1.80;;;;;;;;;;2087419;28;20600;-62
2022/07/08 01:45:22;;;;;;;4.70;1.83;;;;;;;;;;2084519;28;20040;-62
2022/07/08 01:46:41;;;;;;;3.90;2.00;;;;;;;;;;2084789;28;20033;-63
2022/07/08 01:48:00;;;;;;;4.82;3.53;;;;;;;;;;2087284;28;20037;-62
2022/07/08 01:49:20;;;;;;;9.40;7.93;;;;;;;;;;2085135;28;20029;-62
2022/07/08 01:50:39;;;;;;;8.70;7.80;;;;;;;;;;2088613;28;20029;-62
2022/07/08 01:51:58;;;;;;;10.30;7.75;;;;;;;;;;2085802;28;20029;-62
2022/07/08 01:53:17;;;;;;;11.50;8.43;;;;;;;;;;2086670;28;20192;-62
2022/07/08 01:54:36;;;;;;;6.45;5.93;;;;;;;;;;2088398;28;20033;-62
2022/07/08 01:55:55;;;;;;;7.88;6.72;;;;;;;;;;2086560;28;20036;-63
2022/07/08 01:57:14;;;;;;;6.50;5.20;;;;;;;;;;2086398;28;20111;-64
2022/07/08 01:58:33;;;;;;;8.75;4.50;;;;;;;;;;2088101;28;20024;-63
2022/07/08 01:59:52;;;;;;;4.55;4.15;;;;;;;;;;2087017;28;20041;-63
2022/07/08 02:01:10;;;;;;;5.68;4.30;;;;;;;;;;2086570;28;20025;-63
2022/07/08 02:02:29;;;;;;;5.75;4.65;;;;;;;;;;2086704;28;20033;-63
2022/07/08 02:03:48;;;;;;;6.53;4.30;;;;;;;;;;2084338;28;20060;-62
2022/07/08 02:05:08;;;;;;;5.90;4.85;;;;;;;;;;2086038;28;20429;-62
2022/07/08 02:06:28;;;;;;;7.00;5.40;;;;;;;;;;2087233;28;20029;-62
2022/07/08 02:07:47;;;;;;;4.15;3.80;;;;;;;;;;2084992;28;20112;-62
2022/07/08 02:09:06;;;;;;;5.03;4.63;;;;;;;;;;2081653;28;20473;-62
2022/07/08 02:10:25;;;;;;;6.85;5.88;;;;;;;;;;2088368;28;20033;-63
2022/07/08 02:13:22;;;;;;;5.43;4.35;;;;;;;;;;2086585;28;20357;-62
2022/07/08 02:14:41;;;;;;;7.03;6.32;;;;;;;;;;2085653;28;20428;-62
2022/07/08 02:16:00;;;;;;;4.70;3.95;;;;;;;;;;2084632;28;20025;-62
2022/07/08 02:17:20;;;;;;;4.97;4.40;;;;;;;;;;2084768;28;20232;-62
2022/07/08 02:18:40;;;;;;;6.25;4.18;;;;;;;;;;2086146;28;20488;-62
2022/07/08 02:19:58;;;;;;;7.88;4.22;;;;;;;;;;2083230;28;20048;-62
2022/07/08 02:21:17;;;;;;;5.43;4.28;;;;;;;;;;2085240;28;20588;-62
2022/07/08 02:22:37;;;;;;;4.40;4.10;;;;;;;;;;2084923;28;20057;-62
2022/07/08 02:23:56;;;;;;;3.28;2.97;;;;;;;;;;2085962;28;20067;-62
2022/07/08 02:25:15;;;;;;;2.88;2.47;;;;;;;;;;2086599;28;20468;-62
2022/07/08 02:26:34;;;;;;;3.28;2.38;;;;;;;;;;2088432;28;20017;-62
2022/07/08 02:27:53;;;;;;;2.20;2.00;;;;;;;;;;2085557;28;20036;-62
2022/07/08 02:29:12;;;;;;;2.90;2.33;;;;;;;;;;2083556;28;20024;-62
2022/07/08 02:30:31;;;;;;;3.05;2.75;;;;;;;;;;2084169;28;20028;-62
2022/07/08 02:31:50;;;;;;;2.10;2.00;;;;;;;;;;2086573;28;20021;-62
2022/07/08 02:33:09;;;;;;;3.20;2.33;;;;;;;;;;2086296;28;20427;-62
2022/07/08 02:34:28;;;;;;;2.40;2.30;;;;;;;;;;2087034;28;20021;-62
2022/07/08 02:35:47;;;;;;;2.35;2.20;;;;;;;;;;2085237;28;20045;-62
2022/07/08 02:37:06;;;;;;;6.18;2.28;;;;;;;;;;2086137;28;20112;-62
2022/07/08 02:38:26;;;;;;;3.45;2.10;;;;;;;;;;2086352;28;20041;-62
2022/07/08 02:39:44;;;;;;;2.50;1.70;;;;;;;;;;2084840;28;20061;-62
2022/07/08 02:41:04;;;;;;;3.05;1.77;;;;;;;;;;2087317;28;20025;-64
2022/07/08 02:42:22;;;;;;;2.75;1.70;;;;;;;;;;2086782;28;20041;-62
2022/07/08 02:43:42;;;;;;;3.72;1.70;;;;;;;;;;2085531;28;20124;-62
2022/07/08 02:45:01;;;;;;;3.25;1.75;;;;;;;;;;2086584;28;20394;-64
2022/07/08 02:46:20;;;;;;;3.05;2.17;;;;;;;;;;2088877;28;20021;-62
2022/07/08 02:47:39;;;;;;;2.25;2.05;;;;;;;;;;2083133;28;20041;-62
2022/07/08 02:48:58;;;;;;;3.75;2.08;;;;;;;;;;2086701;28;20025;-62
2022/07/08 02:50:17;;;;;;;1.95;1.85;;;;;;;;;;2085922;28;20037;-62
2022/07/08 02:51:36;;;;;;;4.03;2.55;;;;;;;;;;2085978;28;20025;-62
2022/07/08 02:52:55;;;;;;;3.00;1.90;;;;;;;;;;2086211;28;20025;-62
2022/07/08 02:54:14;;;;;;;2.08;1.52;;;;;;;;;;2085288;28;20473;-63
2022/07/08 02:55:33;;;;;;;3.22;1.40;;;;;;;;;;2085997;28;20501;-62
2022/07/08 02:56:52;;;;;;;3.85;1.95;;;;;;;;;;2087402;28;20032;-62
2022/07/08 02:58:11;;;;;;;3.17;2.30;;;;;;;;;;2086949;28;20041;-62
2022/07/08 02:59:30;;;;;;;1.58;1.48;;;;;;;;;;2086221;28;20029;-62
2022/07/08 03:00:49;;;;;;;6.15;1.77;;;;;;;;;;2084459;28;20033;-62
2022/07/08 03:02:08;;;;;;;1.67;1.58;;;;;;;;;;2087733;28;20033;-62
2022/07/08 03:03:27;;;;;;;2.05;1.70;;;;;;;;;;2086018;28;20541;-62
2022/07/08 03:04:45;;;;;;;2.35;2.00;;;;;;;;;;2085026;28;20397;-63
2022/07/08 03:06:04;;;;;;;6.07;2.30;;;;;;;;;;2086711;28;20057;-62
2022/07/08 03:07:23;;;;;;;2.42;2.00;;;;;;;;;;2086237;28;20038;-62
2022/07/08 03:08:42;;;;;;;3.03;2.28;;;;;;;;;;2088049;28;20471;-62
2022/07/08 03:10:01;;;;;;;1.95;1.80;;;;;;;;;;2082978;28;20041;-62
2022/07/08 03:11:20;;;;;;;2.47;1.65;;;;;;;;;;2085182;28;20108;-63
2022/07/08 03:12:39;;;;;;;3.50;1.80;;;;;;;;;;2087273;28;20033;-62
2022/07/08 03:13:58;;;;;;;3.42;1.20;;;;;;;;;;2084986;28;20021;-63
2022/07/08 03:15:17;;;;;;;1.38;1.10;;;;;;;;;;2080798;28;20060;-64
2022/07/08 03:16:36;;;;;;;1.85;1.45;;;;;;;;;;2090186;28;20029;-62
2022/07/08 03:17:55;;;;;;;3.10;1.30;;;;;;;;;;2086807;28;20033;-62
2022/07/08 03:19:14;;;;;;;2.08;1.38;;;;;;;;;;2087283;28;20025;-62
2022/07/08 03:20:33;;;;;;;1.10;1.00;;;;;;;;;;2087743;28;20025;-64
2022/07/08 03:21:52;;;;;;;1.17;1.08;;;;;;;;;;2087125;28;20053;-62
2022/07/08 03:23:11;;;;;;;5.63;1.48;;;;;;;;;;2085343;28;20029;-64
2022/07/08 03:24:29;;;;;;;1.95;1.10;;;;;;;;;;2088784;28;20029;-62
2022/07/08 03:25:48;;;;;;;1.65;0.93;;;;;;;;;;2087486;28;20044;-63
2022/07/08 03:27:07;;;;;;;3.33;0.80;;;;;;;;;;2085327;28;20112;-64
2022/07/08 03:28:26;;;;;;;1.33;1.10;;;;;;;;;;2084809;28;20037;-62
2022/07/08 03:29:45;;;;;;;1.15;1.05;;;;;;;;;;2085303;28;20021;-62
2022/07/08 03:31:04;;;;;;;2.35;1.00;;;;;;;;;;2086513;28;20020;-64
2022/07/08 03:32:23;;;;;;;1.40;1.30;;;;;;;;;;2090764;28;20040;-62
2022/07/08 03:33:42;;;;;;;2.38;1.17;;;;;;;;;;2087419;28;20033;-62
2022/07/08 03:35:01;;;;;;;1.50;1.05;;;;;;;;;;2085187;28;20081;-62
2022/07/08 03:36:20;;;;;;;2.33;1.00;;;;;;;;;;2088232;28;20073;-63
2022/07/08 03:37:43;;;;;;;1.08;0.98;;;;;;;;;;2087374;28;20052;-63
2022/07/08 03:39:02;;;;;;;2.33;1.08;;;;;;;;;;2088720;28;20037;-63
2022/07/08 03:41:59;;;;;;;1.60;0.90;;;;;;;;;;2088408;28;20033;-63
2022/07/08 03:43:18;;;;;;;1.95;0.95;;;;;;;;;;2087544;28;20021;-62
2022/07/08 03:44:36;;;;;;;1.73;1.10;;;;;;;;;;2088906;28;20033;-62
2022/07/08 03:45:56;;;;;;;3.13;1.08;;;;;;;;;;2085673;28;20040;-63
2022/07/08 03:47:15;;;;;;;1.10;1.00;;;;;;;;;;2087737;28;20033;-63
2022/07/08 03:48:34;;;;;;;2.80;1.48;;;;;;;;;;2088851;28;20037;-64
2022/07/08 03:49:53;;;;;;;2.67;1.27;;;;;;;;;;2087331;28;20033;-62
2022/07/08 03:51:13;;;;;;;1.88;0.98;;;;;;;;;;2086116;28;20553;-64
2022/07/08 03:52:32;;;;;;;1.50;1.13;;;;;;;;;;2088963;28;20037;-62
2022/07/08 03:53:51;;;;;;;2.75;0.90;;;;;;;;;;2086340;28;20025;-63
2022/07/08 03:55:10;;;;;;;3.13;0.90;;;;;;;;;;2087394;28;20103;-63
2022/07/08 03:56:29;;;;;;;1.83;1.10;;;;;;;;;;2088939;28;20040;-62
2022/07/08 03:57:48;;;;;;;1.10;1.00;;;;;;;;;;2086638;28;20017;-63
2022/07/08 03:59:06;;;;;;;1.55;1.17;;;;;;;;;;2086184;28;20486;-63
2022/07/08 04:00:26;;;;;;;5.20;1.10;;;;;;;;;;2085445;28;20051;-63
2022/07/08 04:01:44;;;;;;;1.00;0.90;;;;;;;;;;2085816;28;20037;-62
2022/07/08 04:03:03;;;;;;;1.98;0.85;;;;;;;;;;2088708;28;20025;-63
2022/07/08 04:04:22;;;;;;;2.33;1.20;;;;;;;;;;2089663;28;20041;-63
2022/07/08 04:05:41;;;;;;;3.45;1.63;;;;;;;;;;2087671;28;20118;-63
2022/07/08 04:07:00;;;;;;;1.38;1.27;;;;;;;;;;2088720;28;20032;-64
2022/07/08 04:08:19;;;;;;;4.60;1.00;;;;;;;;;;2088385;28;20025;-63
2022/07/08 04:09:38;;;;;;;2.03;1.10;;;;;;;;;;2088969;28;20104;-62
2022/07/08 04:10:57;;;;;;;1.58;1.10;;;;;;;;;;2087491;28;20025;-62
2022/07/08 04:12:16;;;;;;;2.67;1.23;;;;;;;;;;2085172;28;20041;-63
2022/07/08 04:13:37;;;;;;;2.15;0.93;;;;;;;;;;2087004;28;20033;-63
2022/07/08 04:14:56;;;;;;;0.90;0.90;;;;;;;;;;2088789;28;20025;-63
2022/07/08 04:16:15;;;;;;;2.08;1.00;;;;;;;;;;2086239;28;20037;-62
2022/07/08 04:17:34;;;;;;;1.17;1.00;;;;;;;;;;2087544;28;20389;-62
2022/07/08 04:18:53;;;;;;;1.20;1.10;;;;;;;;;;2089132;28;20060;-62
2022/07/08 04:20:12;;;;;;;1.20;1.10;;;;;;;;;;2088189;28;20028;-62
2022/07/08 04:21:31;;;;;;;1.75;1.40;;;;;;;;;;2087027;28;20040;-64
2022/07/08 04:22:50;;;;;;;3.75;1.02;;;;;;;;;;2088108;28;20021;-63
2022/07/08 04:24:08;;;;;;;3.53;1.20;;;;;;;;;;2088550;28;20393;-62
2022/07/08 04:25:27;;;;;;;1.42;1.10;;;;;;;;;;2084926;28;20033;-62
2022/07/08 04:26:46;;;;;;;1.55;1.13;;;;;;;;;;2088401;28;20454;-62
2022/07/08 04:28:05;;;;;;;3.00;0.98;;;;;;;;;;2088711;28;20036;-63
2022/07/08 04:29:24;;;;;;;2.47;1.23;;;;;;;;;;2085773;28;20103;-62
2022/07/08 04:30:43;;;;;;;2.03;1.05;;;;;;;;;;2084453;28;21896;-64
2022/07/08 04:32:02;;;;;;;2.20;1.15;;;;;;;;;;2085533;28;20033;-62
2022/07/08 04:33:21;;;;;;;2.72;1.17;;;;;;;;;;2084562;28;20517;-63
2022/07/08 04:34:40;;;;;;;3.28;1.00;;;;;;;;;;2087322;28;20104;-63
2022/07/08 04:35:59;;;;;;;3.83;1.30;;;;;;;;;;2087446;28;20032;-62
2022/07/08 04:37:18;;;;;;;1.55;1.00;;;;;;;;;;2086682;28;20068;-63
2022/07/08 04:38:37;;;;;;;4.55;0.90;;;;;;;;;;2089335;28;20028;-61
2022/07/08 04:39:56;;;;;;;4.03;1.10;;;;;;;;;;2086706;28;20025;-62
2022/07/08 04:41:15;;;;;;;4.75;1.08;;;;;;;;;;2084646;28;20040;-61
2022/07/08 04:42:34;;;;;;;1.60;1.00;;;;;;;;;;2087231;28;20064;-61
2022/07/08 04:43:53;;;;;;;1.10;1.00;;;;;;;;;;2087485;28;20029;-61
2022/07/08 04:45:12;;;;;;;1.55;1.02;;;;;;;;;;2086598;28;20041;-62
2022/07/08 04:46:31;;;;;;;4.72;1.30;;;;;;;;;;2089382;28;20029;-62
2022/07/08 04:47:50;;;;;;;1.48;1.10;;;;;;;;;;2086089;28;20029;-61
2022/07/08 04:49:10;;;;;;;0.85;0.85;;;;;;;;;;2087729;28;20104;-61
2022/07/08 04:50:29;;;;;;;2.55;1.00;;;;;;;;;;2086836;28;20025;-63
2022/07/08 04:51:48;;;;;;;2.88;1.15;;;;;;;;;;2084430;28;20037;-62
2022/07/08 04:53:07;;;;;;;2.78;1.08;;;;;;;;;;2085272;28;20029;-62
2022/07/08 04:54:26;;;;;;;4.95;1.30;;;;;;;;;;2088538;28;20470;-61
2022/07/08 04:55:45;;;;;;;1.90;1.30;;;;;;;;;;2085179;28;20909;-63
2022/07/08 04:57:05;;;;;;;3.25;1.17;;;;;;;;;;2087578;28;20037;-62
2022/07/08 04:58:24;;;;;;;1.00;1.00;;;;;;;;;;2086925;28;20390;-61
2022/07/08 04:59:43;;;;;;;1.48;1.13;;;;;;;;;;2085017;28;20436;-61
2022/07/08 05:01:02;;;;;;;0.80;0.80;;;;;;;;;;2082350;28;20037;-62
2022/07/08 05:02:21;;;;;;;2.30;1.15;;;;;;;;;;2086952;28;20033;-61
2022/07/08 05:03:40;;;;;;;1.05;0.90;;;;;;;;;;2088019;28;20386;-61
2022/07/08 05:04:58;;;;;;;2.65;1.02;;;;;;;;;;2087905;28;20037;-61
2022/07/08 05:06:17;;;;;;;3.55;0.90;;;;;;;;;;2086157;28;20037;-61
2022/07/08 05:07:36;;;;;;;1.75;0.85;;;;;;;;;;2085721;28;20101;-62
2022/07/08 05:08:55;;;;;;;2.63;0.95;;;;;;;;;;2087549;28;20033;-61
2022/07/08 05:10:18;;;;;;;1.02;0.88;;;;;;;;;;2085942;28;20029;-61
2022/07/08 05:11:37;;;;;;;3.13;0.90;;;;;;;;;;2086248;28;20021;-61
2022/07/08 05:12:57;;;;;;;2.90;1.13;;;;;;;;;;2088079;28;20053;-61
2022/07/08 05:14:16;;;;;;;3.03;0.80;;;;;;;;;;2083239;28;20025;-61
2022/07/08 05:15:35;;;;;;;0.90;0.90;;;;;;;;;;2081748;28;20474;-61
2022/07/08 05:16:54;;;;;;;1.27;1.10;;;;;;;;;;2086591;28;20025;-62
2022/07/08 05:18:14;;;;;;;2.15;0.85;;;;;;;;;;2087872;28;20462;-61
2022/07/08 05:19:32;;;;;;;1.20;0.90;;;;;;;;;;2086634;28;20040;-61
2022/07/08 05:20:51;;;;;;;1.50;1.20;;;;;;;;;;2083191;28;20033;-61
2022/07/08 05:22:10;;;;;;;0.93;0.93;;;;;;;;;;2083123;28;20037;-60
2022/07/08 05:23:29;;;;;;;2.90;0.80;;;;;;;;;;2083205;28;20398;-62
2022/07/08 05:24:48;;;;;;;1.42;0.82;;;;;;;;;;2083773;28;20033;-61
2022/07/08 05:26:07;;;;;;;1.77;1.02;;;;;;;;;;2084270;28;20045;-61
2022/07/08 05:27:26;;;;;;;1.67;1.15;;;;;;;;;;2086630;28;20868;-61
2022/07/08 05:28:45;;;;;;;2.15;1.13;;;;;;;;;;2087717;28;20017;-62
2022/07/08 05:30:06;;;;;;;0.82;0.82;;;;;;;;;;2083140;28;20024;-62
2022/07/08 05:31:25;;;;;;;0.80;0.80;;;;;;;;;;2083897;28;20025;-61
2022/07/08 05:32:43;;;;;;;2.05;0.80;;;;;;;;;;2084463;28;20037;-61
2022/07/08 05:34:03;;;;;;;2.70;1.00;;;;;;;;;;2084630;28;20459;-61
2022/07/08 05:35:21;;;;;;;0.90;0.90;;;;;;;;;;2084571;28;21045;-61
2022/07/08 05:36:41;;;;;;;1.95;1.30;;;;;;;;;;2086798;28;20107;-61
2022/07/08 05:38:00;;;;;;;0.85;0.82;;;;;;;;;;2081582;28;20558;-61
2022/07/08 05:39:19;;;;;;;3.03;0.90;;;;;;;;;;2086241;28;20025;-61
2022/07/08 05:40:38;;;;;;;1.63;1.20;;;;;;;;;;2088482;28;20486;-61
2022/07/08 05:41:57;;;;;;;1.15;0.80;;;;;;;;;;2082528;28;20036;-61
2022/07/08 05:43:17;;;;;;;0.73;0.50;;;;;;;;;;2084914;28;20045;-61
2022/07/08 05:44:36;;;;;;;1.90;0.80;;;;;;;;;;2088633;28;20033;-61
2022/07/08 05:45:54;;;;;;;2.15;0.68;;;;;;;;;;2086187;28;20033;-61
2022/07/08 05:47:13;;;;;;;4.47;1.10;;;;;;;;;;2087274;28;20025;-61
2022/07/08 05:48:32;;;;;;;0.73;0.73;;;;;;;;;;2085484;28;20028;-61
2022/07/08 05:49:51;;;;;;;0.77;0.77;;;;;;;;;;2086109;28;20029;-62
2022/07/08 05:51:10;;;;;;;0.75;0.73;;;;;;;;;;2087043;28;20024;-63
2022/07/08 05:52:29;;;;;;;1.25;0.77;;;;;;;;;;2086179;28;20025;-62
2022/07/08 05:53:48;;;;;;;2.80;0.77;;;;;;;;;;2083447;28;22996;-61
2022/07/08 05:55:07;;;;;;;4.90;0.85;;;;;;;;;;2083664;28;20029;-62
2022/07/08 05:56:26;;;;;;;1.05;0.80;;;;;;;;;;2083623;28;20021;-63
2022/07/08 05:57:45;;;;;;;1.75;0.60;;;;;;;;;;2083075;28;20509;-61
2022/07/08 05:59:04;;;;;;;1.02;0.80;;;;;;;;;;2087642;28;20029;-61
2022/07/08 06:00:23;;;;;;;0.95;0.80;;;;;;;;;;2084418;28;20029;-61
2022/07/08 06:01:42;;;;;;;1.73;0.68;;;;;;;;;;2085356;28;20473;-61
2022/07/08 06:03:03;;;;;;;1.65;0.70;;;;;;;;;;2086072;28;20030;-62
2022/07/08 06:04:22;;;;;;;0.60;0.60;;;;;;;;;;2088628;28;20057;-61
2022/07/08 06:05:41;;;;;;;1.23;0.63;;;;;;;;;;2085767;28;20051;-61
2022/07/08 06:07:00;;;;;;;0.50;0.50;;;;;;;;;;2088179;28;20107;-61
2022/07/08 06:08:18;;;;;;;2.13;0.70;;;;;;;;;;2085403;28;20032;-62
2022/07/08 06:09:37;;;;;;;2.80;0.88;;;;;;;;;;2082395;28;20033;-61
2022/07/08 06:10:56;;;;;;;1.65;0.77;;;;;;;;;;2083122;28;20037;-61
2022/07/08 06:12:16;;;;;;;0.85;0.55;;;;;;;;;;2085714;28;20029;-61
2022/07/08 06:13:34;;;;;;;1.40;0.93;;;;;;;;;;2085733;28;20025;-61
2022/07/08 06:14:53;;;;;;;3.92;0.77;;;;;;;;;;2083634;28;20025;-61
2022/07/08 06:16:12;;;;;;;0.80;0.80;;;;;;;;;;2084772;28;20025;-61
2022/07/08 06:17:31;;;;;;;2.53;0.80;;;;;;;;;;2084366;28;20070;-61
2022/07/08 06:18:50;;;;;;;2.38;0.80;;;;;;;;;;2080775;28;20425;-61
2022/07/08 06:20:09;;;;;;;0.90;0.60;;;;;;;;;;2078380;28;20033;-63
2022/07/08 06:21:29;;;;;;;3.90;0.80;;;;;;;;;;2080923;28;20049;-62
2022/07/08 06:22:48;;;;;;;2.35;0.95;;;;;;;;;;2085979;28;20118;-63
2022/07/08 06:24:07;;;;;;;1.90;0.70;;;;;;;;;;2086294;28;20056;-62
2022/07/08 06:25:27;;;;;;;5.00;1.00;;;;;;;;;;2084940;28;20498;-62
2022/07/08 06:26:46;;;;;;;0.95;0.80;;;;;;;;;;2085940;28;20025;-61
2022/07/08 06:28:05;;;;;;;1.30;0.60;;;;;;;;;;2086654;28;20456;-61
2022/07/08 06:29:24;;;;;;;1.85;0.88;;;;;;;;;;2084125;28;20397;-61
2022/07/08 06:30:43;;;;;;;2.40;0.95;;;;;;;;;;2083980;28;20584;-61
2022/07/08 06:32:02;;;;;;;8.27;0.93;;;;;;;;;;2083903;28;20060;-61
2022/07/08 06:33:20;;;;;;;3.13;0.60;;;;;;;;;;2087289;28;20021;-61
2022/07/08 06:34:39;;;;;;;2.28;0.73;;;;;;;;;;2088799;28;20030;-61
2022/07/08 06:35:58;;;;;;;1.90;0.60;;;;;;;;;;2088458;28;20048;-60
2022/07/08 06:37:17;;;;;;;2.67;0.95;;;;;;;;;;2087509;28;20390;-62
2022/07/08 06:38:36;;;;;;;0.60;0.60;;;;;;;;;;2084609;28;20117;-61
2022/07/08 06:39:55;;;;;;;0.77;0.70;;;;;;;;;;2086996;28;20542;-61
2022/07/08 06:41:14;;;;;;;1.67;0.80;;;;;;;;;;2087386;28;20029;-60
2022/07/08 06:42:33;;;;;;;0.98;0.55;;;;;;;;;;2085121;28;20036;-61
2022/07/08 06:43:52;;;;;;;0.70;0.60;;;;;;;;;;2081543;28;20135;-61
2022/07/08 06:45:11;;;;;;;0.50;0.50;;;;;;;;;;2086831;28;20112;-62
2022/07/08 06:46:30;;;;;;;1.60;0.70;;;;;;;;;;2087194;28;20432;-62
2022/07/08 06:47:48;;;;;;;1.05;0.80;;;;;;;;;;2086698;28;20029;-61
2022/07/08 06:49:08;;;;;;;4.05;0.80;;;;;;;;;;2086196;28;20041;-61
2022/07/08 06:50:27;;;;;;;3.35;0.65;;;;;;;;;;2087522;28;20084;-62
2022/07/08 06:51:46;;;;;;;2.35;0.60;;;;;;;;;;2088440;28;20029;-62
2022/07/08 06:53:05;;;;;;;1.73;0.65;;;;;;;;;;2088335;28;20040;-61
2022/07/08 06:54:36;;;;;;;0.50;0.50;;;;;;;;;;2086010;28;20112;-61
2022/07/08 06:55:55;;;;;;;2.33;0.80;;;;;;;;;;2087589;28;20111;-61
2022/07/08 06:57:15;;;;;;;0.93;0.70;;;;;;;;;;2087634;28;20033;-63
2022/07/08 06:58:34;;;;;;;3.85;0.95;;;;;;;;;;2088497;28;20021;-61
2022/07/08 06:59:53;;;;;;;1.15;0.70;;;;;;;;;;2087464;28;21917;-61
2022/07/08 07:01:11;;;;;;;3.42;0.85;;;;;;;;;;2086293;28;20123;-61
2022/07/08 07:02:30;;;;;;;0.52;0.50;;;;;;;;;;2084983;28;20029;-61
2022/07/08 07:03:49;;;;;;;1.25;0.60;;;;;;;;;;2084259;28;20033;-61
2022/07/08 07:05:08;;;;;;;2.35;0.85;;;;;;;;;;2086916;28;20037;-61
2022/07/08 07:06:28;;;;;;;2.00;0.57;;;;;;;;;;2085154;28;20053;-60
2022/07/08 07:07:47;;;;;;;1.10;0.60;;;;;;;;;;2088202;28;20481;-61
2022/07/08 07:09:06;;;;;;;2.10;0.50;;;;;;;;;;2087248;28;20463;-61
2022/07/08 07:10:25;;;;;;;3.42;0.60;;;;;;;;;;2086590;28;20064;-62
2022/07/08 07:11:44;;;;;;;4.07;0.70;;;;;;;;;;2084790;28;20049;-61
2022/07/08 07:13:03;;;;;;;1.45;0.73;;;;;;;;;;2086903;28;20025;-62
2022/07/08 07:14:22;;;;;;;4.03;0.80;;;;;;;;;;2083507;28;20402;-61
2022/07/08 07:15:42;;;;;;;2.85;0.80;;;;;;;;;;2085273;28;20033;-63
2022/07/08 07:17:01;;;;;;;2.08;0.60;;;;;;;;;;2087555;28;20386;-62
2022/07/08 07:18:20;;;;;;;0.93;0.70;;;;;;;;;;2088279;28;20021;-62
2022/07/08 07:19:38;;;;;;;3.08;0.68;;;;;;;;;;2086537;28;20037;-61
2022/07/08 07:20:57;;;;;;;3.67;1.00;;;;;;;;;;2086185;28;20060;-60
2022/07/08 07:22:17;;;;;;;1.98;0.88;;;;;;;;;;2086589;28;20072;-61
2022/07/08 07:23:35;;;;;;;3.15;1.00;;;;;;;;;;2087208;28;20029;-61
2022/07/08 07:24:54;;;;;;;2.25;0.60;;;;;;;;;;2086895;28;20029;-62
2022/07/08 07:26:13;;;;;;;1.23;0.88;;;;;;;;;;2083540;28;20041;-61
2022/07/08 07:27:32;;;;;;;2.13;0.98;;;;;;;;;;2085111;28;20112;-63
2022/07/08 07:28:51;;;;;;;1.42;0.75;;;;;;;;;;2087076;28;20033;-63
2022/07/08 07:30:10;;;;;;;2.08;0.70;;;;;;;;;;2084615;28;20021;-64
2022/07/08 07:31:29;;;;;;;1.23;0.75;;;;;;;;;;2086497;28;20025;-63
2022/07/08 07:32:48;;;;;;;1.35;0.75;;;;;;;;;;2087327;28;20051;-64
2022/07/08 07:34:07;;;;;;;1.02;0.60;;;;;;;;;;2087933;28;20406;-64
2022/07/08 07:35:26;;;;;;;0.88;0.80;;;;;;;;;;2084823;28;20037;-64
2022/07/08 07:36:45;;;;;;;2.70;1.00;;;;;;;;;;2088135;28;20841;-64
2022/07/08 07:38:04;;;;;;;2.50;0.75;;;;;;;;;;2081945;28;21081;-64
2022/07/08 07:39:23;;;;;;;3.60;1.00;;;;;;;;;;2084490;28;20397;-65
2022/07/08 07:40:42;;;;;;;2.20;0.93;;;;;;;;;;2082982;28;20061;-61
2022/07/08 07:42:01;;;;;;;2.72;0.85;;;;;;;;;;2082638;28;20029;-64
2022/07/08 07:43:20;;;;;;;1.02;0.73;;;;;;;;;;2083169;28;20406;-63
2022/07/08 07:44:39;;;;;;;0.93;0.70;;;;;;;;;;2083908;28;20112;-65
2022/07/08 07:45:58;;;;;;;2.55;0.68;;;;;;;;;;2083800;28;20029;-64
2022/07/08 07:47:17;;;;;;;1.00;0.80;;;;;;;;;;2087273;28;20017;-64
2022/07/08 07:48:36;;;;;;;3.13;0.88;;;;;;;;;;2083130;28;20113;-64
2022/07/08 07:49:55;;;;;;;0.80;0.60;;;;;;;;;;2087148;28;20032;-64
2022/07/08 07:51:14;;;;;;;2.05;0.68;;;;;;;;;;2082866;28;20377;-65
2022/07/08 07:52:33;;;;;;;1.38;0.63;;;;;;;;;;2083263;28;20020;-64
2022/07/08 07:53:52;;;;;;;1.60;0.68;;;;;;;;;;2083438;28;20029;-64
2022/07/08 07:55:11;;;;;;;1.67;0.50;;;;;;;;;;2082174;28;20025;-64
2022/07/08 07:56:30;;;;;;;1.40;0.68;;;;;;;;;;2087910;28;20025;-65
2022/07/08 07:57:49;;;;;;;1.45;0.60;;;;;;;;;;2085737;28;20029;-64